createdAt,value
2023-05-17T00:01:27.953Z,57.63
2023-05-17T00:04:13.992Z,57.57
2023-05-17T00:06:59.791Z,57.59
2023-05-17T00:09:47.401Z,57.52
2023-05-17T00:12:35.062Z,57.69
2023-05-17T00:15:21.487Z,57.69
2023-05-17T00:18:07.719Z,57.88
2023-05-17T00:20:53.741Z,57.81
2023-05-17T00:23:39.631Z,57.82
2023-05-17T00:26:25.705Z,57.91
2023-05-17T00:29:11.906Z,57.77
2023-05-17T00:31:58.031Z,57.83
2023-05-17T00:34:43.897Z,57.81
2023-05-17T00:37:34.803Z,57.71
2023-05-17T00:40:20.785Z,57.75
2023-05-17T00:43:07.242Z,57.62
2023-05-17T00:45:53.348Z,57.84
2023-05-17T00:48:39.836Z,57.75
2023-05-17T00:51:26.159Z,57.88
2023-05-17T00:54:12.546Z,57.77
2023-05-17T00:57:00.923Z,57.78
2023-05-17T00:59:47.687Z,57.60
2023-05-17T01:02:33.741Z,57.84
2023-05-17T01:05:21.068Z,57.74
2023-05-17T01:08:07.219Z,57.59
2023-05-17T01:10:59.113Z,57.79
2023-05-17T01:14:06.600Z,57.96
2023-05-17T01:17:06.668Z,57.68
2023-05-17T01:20:13.168Z,57.79
2023-05-17T01:23:25.170Z,57.67
2023-05-17T01:26:39.453Z,57.67
2023-05-17T01:29:29.072Z,57.91
2023-05-17T01:32:16.412Z,57.74
2023-05-17T01:35:05.682Z,57.59
2023-05-17T01:37:54.529Z,57.91
2023-05-17T01:41:06.428Z,57.92
2023-05-17T01:44:02.479Z,57.73
2023-05-17T01:46:50.091Z,58.00
2023-05-17T01:49:38.929Z,57.77
2023-05-17T01:52:31.936Z,58.06
2023-05-17T01:55:37.118Z,57.90
2023-05-17T01:58:26.306Z,57.84
2023-05-17T02:01:13.728Z,57.71
2023-05-17T02:03:59.832Z,57.81
2023-05-17T02:06:46.152Z,57.80
2023-05-17T02:09:32.165Z,57.88
2023-05-17T02:12:18.485Z,58.00
2023-05-17T02:15:05.131Z,57.83
2023-05-17T02:17:51.414Z,58.04
2023-05-17T02:20:37.453Z,57.75
2023-05-17T02:23:25.058Z,57.93
2023-05-17T02:26:12.234Z,58.06
2023-05-17T02:28:59.018Z,58.01
2023-05-17T02:31:46.286Z,57.93
2023-05-17T02:34:32.449Z,57.64
2023-05-17T02:37:18.924Z,57.48
2023-05-17T02:40:09.554Z,57.84
2023-05-17T02:42:55.348Z,57.64
2023-05-17T02:45:41.262Z,57.80
2023-05-17T02:48:27.002Z,57.83
2023-05-17T02:51:13.167Z,57.85
2023-05-17T02:53:59.622Z,57.64
2023-05-17T02:56:46.164Z,57.80
2023-05-17T02:59:33.535Z,57.87
2023-05-17T03:02:20.151Z,57.69
2023-05-17T03:05:06.395Z,58.05
2023-05-17T03:07:52.346Z,57.81
2023-05-17T03:10:38.268Z,57.82
2023-05-17T03:13:25.617Z,57.80
2023-05-17T03:16:11.814Z,57.97
2023-05-17T03:18:58.342Z,57.59
2023-05-17T03:21:44.863Z,57.66
2023-05-17T03:24:32.135Z,57.79
2023-05-17T03:27:19.432Z,57.59
2023-05-17T03:30:06.342Z,58.04
2023-05-17T03:32:57.665Z,57.97
2023-05-17T03:35:44.466Z,57.87
2023-05-17T03:38:31.048Z,57.80
2023-05-17T03:41:17.344Z,57.64
2023-05-17T03:44:03.985Z,57.94
2023-05-17T03:46:57.141Z,57.61
2023-05-17T03:49:43.878Z,58.02
2023-05-17T03:52:30.899Z,57.60
2023-05-17T03:55:18.140Z,57.65
2023-05-17T03:58:04.162Z,57.76
2023-05-17T04:00:50.353Z,57.89
2023-05-17T04:03:37.965Z,57.83
2023-05-17T04:06:24.810Z,57.66
2023-05-17T04:09:13.971Z,57.64
2023-05-17T04:11:59.893Z,57.59
2023-05-17T04:14:46.001Z,57.77
2023-05-17T04:17:32.173Z,57.55
2023-05-17T04:20:19.014Z,57.90
2023-05-17T04:23:05.245Z,57.75
2023-05-17T04:25:53.952Z,57.82
2023-05-17T04:28:41.339Z,57.65
2023-05-17T04:31:32.022Z,57.78
2023-05-17T04:34:19.529Z,57.74
2023-05-17T04:37:06.126Z,58.10
2023-05-17T04:39:55.221Z,57.96
2023-05-17T04:42:41.414Z,57.70
2023-05-17T04:45:28.067Z,57.86
2023-05-17T04:48:15.656Z,57.76
2023-05-17T04:51:04.837Z,58.18
2023-05-17T04:53:51.555Z,58.25
2023-05-17T04:56:37.900Z,58.11
2023-05-17T04:59:28.787Z,57.90
2023-05-17T05:02:15.147Z,58.01
2023-05-17T05:05:01.629Z,57.83
2023-05-17T05:07:47.934Z,57.71
2023-05-17T05:10:34.062Z,58.01
2023-05-17T05:13:22.045Z,57.72
2023-05-17T05:16:08.518Z,58.20
2023-05-17T05:18:55.852Z,58.09
2023-05-17T05:21:41.862Z,58.21
2023-05-17T05:24:28.073Z,58.30
2023-05-17T05:27:14.926Z,58.16
2023-05-17T05:30:02.364Z,58.09
2023-05-17T05:32:52.571Z,58.16
2023-05-17T05:35:39.104Z,58.06
2023-05-17T05:38:26.322Z,58.04
2023-05-17T05:41:12.434Z,58.14
2023-05-17T05:44:00.023Z,58.20
2023-05-17T05:46:46.092Z,57.96
2023-05-17T05:49:33.424Z,57.97
2023-05-17T05:52:19.354Z,57.81
2023-05-17T05:55:05.980Z,57.88
2023-05-17T05:57:52.164Z,58.02
2023-05-17T06:00:37.986Z,57.92
2023-05-17T06:03:24.760Z,58.14
2023-05-17T06:06:11.445Z,58.09
2023-05-17T06:08:59.677Z,58.14
2023-05-17T06:11:45.852Z,58.18
2023-05-17T06:14:31.784Z,57.82
2023-05-17T06:17:17.900Z,58.10
2023-05-17T06:20:04.286Z,58.11
2023-05-17T06:22:50.232Z,58.10
2023-05-17T06:25:36.090Z,58.02
2023-05-17T06:28:22.008Z,57.77
2023-05-17T06:31:07.815Z,57.82
2023-05-17T06:33:53.612Z,57.84
2023-05-17T06:36:40.796Z,57.69
2023-05-17T06:39:26.862Z,57.94
2023-05-17T06:42:12.760Z,57.60
2023-05-17T06:45:00.586Z,57.98
2023-05-17T06:47:46.643Z,57.91
2023-05-17T06:50:33.002Z,57.76
2023-05-17T06:53:19.081Z,57.80
2023-05-17T06:56:05.348Z,57.85
2023-05-17T06:58:51.647Z,57.79
2023-05-17T07:01:40.041Z,57.90
2023-05-17T07:04:29.374Z,57.83
2023-05-17T07:07:15.635Z,58.01
2023-05-17T07:10:01.714Z,58.08
2023-05-17T07:12:47.751Z,58.02
2023-05-17T07:15:33.812Z,57.92
2023-05-17T07:18:20.101Z,57.45
2023-05-17T07:21:06.237Z,57.44
2023-05-17T07:23:52.516Z,57.21
2023-05-17T07:26:38.695Z,57.10
2023-05-17T07:29:24.862Z,56.60
2023-05-17T07:32:12.208Z,56.89
2023-05-17T07:34:59.571Z,56.69
2023-05-17T07:37:46.123Z,56.70
2023-05-17T07:40:32.039Z,56.73
2023-05-17T07:43:18.279Z,56.54
2023-05-17T07:46:04.798Z,56.25
2023-05-17T07:48:51.396Z,56.48
2023-05-17T07:51:37.844Z,55.79
2023-05-17T07:54:30.214Z,56.07
2023-05-17T07:57:19.660Z,55.90
2023-05-17T08:00:09.107Z,55.65
2023-05-17T08:02:59.087Z,55.53
2023-05-17T08:05:45.457Z,55.49
2023-05-17T08:08:31.380Z,55.33
2023-05-17T08:11:18.294Z,55.62
2023-05-17T08:14:05.285Z,55.40
2023-05-17T08:16:54.464Z,55.34
2023-05-17T08:19:40.629Z,55.20
2023-05-17T08:22:27.554Z,55.04
2023-05-17T08:25:13.753Z,54.77
2023-05-17T08:28:00.248Z,54.85
2023-05-17T08:30:46.159Z,55.01
2023-05-17T08:33:32.843Z,54.94
2023-05-17T08:36:18.703Z,55.06
2023-05-17T08:39:05.127Z,54.83
2023-05-17T08:41:50.853Z,54.63
2023-05-17T08:44:38.707Z,54.23
2023-05-17T08:47:29.882Z,53.84
2023-05-17T08:50:17.558Z,53.59
2023-05-17T08:53:03.722Z,53.59
2023-05-17T08:55:51.058Z,53.26
2023-05-17T08:58:52.336Z,53.26
2023-05-17T09:01:44.042Z,53.37
2023-05-17T09:04:31.400Z,52.93
2023-05-17T09:07:17.555Z,53.22
2023-05-17T09:10:05.933Z,52.69
2023-05-17T09:12:53.145Z,52.60
2023-05-17T09:15:42.956Z,52.47
2023-05-17T09:18:33.280Z,52.24
2023-05-17T09:21:19.329Z,51.75
2023-05-17T09:24:07.683Z,51.60
2023-05-17T09:26:54.252Z,51.43
2023-05-17T09:29:40.181Z,51.38
2023-05-17T09:32:27.274Z,51.27
2023-05-17T09:35:13.883Z,51.39
2023-05-17T09:38:06.854Z,50.86
2023-05-17T09:40:54.772Z,50.68
2023-05-17T09:43:41.232Z,50.55
2023-05-17T09:46:28.064Z,50.04
2023-05-17T09:49:15.008Z,50.05
2023-05-17T09:52:06.556Z,49.97
2023-05-17T09:54:57.155Z,49.76
2023-05-17T09:57:44.419Z,49.69
2023-05-17T10:00:31.528Z,49.72
2023-05-17T10:03:18.152Z,49.30
2023-05-17T10:06:09.866Z,49.12
2023-05-17T10:08:59.234Z,48.72
2023-05-17T10:11:47.258Z,48.52
2023-05-17T10:14:35.451Z,48.31
2023-05-17T10:17:21.999Z,48.52
2023-05-17T10:20:10.525Z,48.22
2023-05-17T10:22:58.600Z,47.99
2023-05-17T10:25:45.730Z,48.21
2023-05-17T10:28:31.826Z,47.80
2023-05-17T10:31:18.201Z,47.41
2023-05-17T10:34:06.642Z,47.23
2023-05-17T10:36:53.060Z,47.27
2023-05-17T10:39:39.213Z,47.13
2023-05-17T10:42:26.720Z,46.84
2023-05-17T10:45:13.970Z,46.55
2023-05-17T10:48:03.882Z,46.72
2023-05-17T10:50:54.910Z,46.83
2023-05-17T10:54:12.507Z,45.26
2023-05-17T10:57:06.471Z,46.00
2023-05-17T11:00:00.808Z,45.71
2023-05-17T11:02:49.045Z,45.95
2023-05-17T11:05:35.325Z,45.62
2023-05-17T11:08:21.804Z,45.79
2023-05-17T11:11:21.044Z,45.66
2023-05-17T11:14:11.621Z,45.33
2023-05-17T11:16:58.404Z,45.12
2023-05-17T11:19:57.421Z,44.78
2023-05-17T11:23:05.133Z,44.18
2023-05-17T11:25:51.461Z,43.83
2023-05-17T11:28:39.371Z,43.83
2023-05-17T11:31:35.384Z,43.58
2023-05-17T11:34:25.256Z,43.41
2023-05-17T11:37:13.197Z,43.14
2023-05-17T11:40:07.016Z,43.18
2023-05-17T11:43:12.444Z,42.95
2023-05-17T11:46:02.561Z,42.81
2023-05-17T11:48:51.012Z,42.26
2023-05-17T11:51:37.199Z,41.95
2023-05-17T11:54:24.520Z,42.07
2023-05-17T11:57:12.735Z,41.77
2023-05-17T12:00:05.042Z,41.60
2023-05-17T12:03:25.660Z,41.52
2023-05-17T12:06:13.741Z,41.64
2023-05-17T12:09:00.397Z,41.63
2023-05-17T12:11:46.437Z,41.64
2023-05-17T12:14:33.127Z,41.65
2023-05-17T12:17:25.595Z,41.53
2023-05-17T12:20:11.808Z,41.64
2023-05-17T12:22:57.820Z,41.42
2023-05-17T12:25:43.659Z,41.09
2023-05-17T12:28:29.957Z,40.32
2023-05-17T12:31:18.493Z,40.23
2023-05-17T12:34:09.376Z,40.18
2023-05-17T12:36:56.002Z,40.03
2023-05-17T12:39:42.034Z,39.66
2023-05-17T12:42:28.265Z,39.12
2023-05-17T12:45:14.584Z,38.98
2023-05-17T12:48:01.123Z,38.36
2023-05-17T12:50:49.217Z,38.69
2023-05-17T12:53:39.572Z,38.53
2023-05-17T12:56:28.360Z,38.24
2023-05-17T12:59:20.977Z,38.44
2023-05-17T13:02:09.922Z,38.47
2023-05-17T13:05:18.899Z,38.07
2023-05-17T13:08:24.741Z,37.63
2023-05-17T13:11:14.791Z,37.68
2023-05-17T13:14:01.487Z,37.84
2023-05-17T13:16:47.583Z,37.51
2023-05-17T13:19:36.099Z,37.47
2023-05-17T13:22:22.115Z,37.34
2023-05-17T13:25:08.474Z,37.54
2023-05-17T13:27:55.646Z,37.38
2023-05-17T13:30:45.990Z,37.07
2023-05-17T13:33:32.428Z,36.82
2023-05-17T13:36:18.505Z,36.45
2023-05-17T13:39:04.849Z,35.85
2023-05-17T13:41:50.927Z,36.00
2023-05-17T13:44:38.453Z,35.94
2023-05-17T13:47:24.904Z,35.39
2023-05-17T13:50:12.182Z,35.66
2023-05-17T13:52:58.709Z,34.83
2023-05-17T13:55:44.913Z,34.89
2023-05-17T13:58:35.426Z,35.06
2023-05-17T14:01:22.584Z,34.72
2023-05-17T14:04:08.864Z,34.83
2023-05-17T14:06:55.382Z,34.71
2023-05-17T14:09:42.215Z,35.14
2023-05-17T14:12:28.820Z,34.83
2023-05-17T14:15:15.309Z,34.66
2023-05-17T14:18:01.379Z,34.72
2023-05-17T14:20:47.777Z,34.67
2023-05-17T14:23:34.923Z,34.45
2023-05-17T14:26:21.794Z,34.02
2023-05-17T14:29:08.009Z,34.08
2023-05-17T14:31:54.257Z,33.50
2023-05-17T14:34:40.316Z,32.96
2023-05-17T14:37:26.512Z,32.85
2023-05-17T14:40:12.822Z,32.17
2023-05-17T14:42:59.119Z,31.72
2023-05-17T14:45:45.296Z,31.82
2023-05-17T14:48:31.785Z,32.00
2023-05-17T14:51:19.202Z,32.15
2023-05-17T14:54:06.186Z,32.50
2023-05-17T14:56:53.584Z,31.93
2023-05-17T14:59:40.270Z,32.23
2023-05-17T15:02:26.706Z,32.58
2023-05-17T15:05:13.128Z,32.92
2023-05-17T15:07:59.420Z,32.64
2023-05-17T15:10:45.572Z,32.49
2023-05-17T15:13:31.603Z,32.36
2023-05-17T15:16:18.139Z,32.59
2023-05-17T15:19:04.695Z,33.00
2023-05-17T15:21:50.778Z,33.39
2023-05-17T15:24:37.676Z,33.21
2023-05-17T15:27:23.702Z,33.64
2023-05-17T15:30:13.207Z,33.59
2023-05-17T15:32:59.984Z,34.01
2023-05-17T15:35:46.168Z,34.36
2023-05-17T15:38:32.045Z,34.53
2023-05-17T15:41:21.784Z,34.76
2023-05-17T15:44:09.105Z,34.92
2023-05-17T15:46:55.112Z,35.14
2023-05-17T15:49:42.360Z,35.26
2023-05-17T15:52:28.382Z,35.21
2023-05-17T15:55:14.682Z,35.30
2023-05-17T15:58:00.814Z,35.54
2023-05-17T16:00:47.012Z,35.62
2023-05-17T16:03:38.023Z,35.61
2023-05-17T16:06:36.090Z,35.67
2023-05-17T16:09:22.419Z,35.81
2023-05-17T16:12:10.362Z,35.91
2023-05-17T16:15:04.674Z,36.06
2023-05-17T16:17:55.106Z,35.95
2023-05-17T16:20:42.819Z,36.27
2023-05-17T16:24:20.101Z,36.17
2023-05-17T16:27:08.151Z,36.36
2023-05-17T16:34:50.082Z,36.30
2023-05-17T16:43:27.739Z,36.04
2023-05-17T16:46:13.905Z,36.68
2023-05-17T16:48:59.754Z,36.57
2023-05-17T16:51:45.788Z,36.79
2023-05-17T16:59:15.983Z,36.64
2023-05-17T17:02:02.308Z,36.77
2023-05-17T17:04:48.153Z,36.89
2023-05-17T17:07:43.351Z,36.76
2023-05-17T17:10:29.811Z,37.11
2023-05-17T17:13:16.589Z,37.25
2023-05-17T17:16:02.565Z,37.25
2023-05-17T17:18:49.874Z,37.40
2023-05-17T17:21:36.874Z,37.44
2023-05-17T17:24:22.858Z,37.38
2023-05-17T17:28:13.951Z,37.33
2023-05-17T17:35:32.293Z,37.69
2023-05-17T17:38:18.277Z,37.70
2023-05-17T17:41:04.337Z,37.67
2023-05-17T17:44:01.704Z,37.79
2023-05-17T17:46:47.849Z,37.63
2023-05-17T17:49:36.052Z,37.61
2023-05-17T17:52:22.048Z,37.56
2023-05-17T17:55:10.259Z,37.75
2023-05-17T17:57:56.468Z,37.77
2023-05-17T18:00:42.835Z,37.72
2023-05-17T18:03:28.758Z,37.78
2023-05-17T18:06:14.857Z,37.63
2023-05-17T18:09:02.000Z,37.84
2023-05-17T18:11:49.435Z,37.89
2023-05-17T18:14:47.352Z,37.87
2023-05-17T18:17:33.391Z,37.95
2023-05-17T18:20:20.084Z,38.04
2023-05-17T18:23:07.362Z,38.07
2023-05-17T18:25:53.663Z,38.50
2023-05-17T18:28:42.829Z,38.32
2023-05-17T18:31:29.077Z,38.43
2023-05-17T18:34:15.627Z,38.47
2023-05-17T18:37:02.173Z,38.65
2023-05-17T18:39:48.178Z,38.79
2023-05-17T18:42:34.088Z,38.66
2023-05-17T18:45:20.447Z,38.78
2023-05-17T18:48:06.573Z,38.75
2023-05-17T18:50:53.157Z,38.92
2023-05-17T18:53:39.305Z,39.01
2023-05-17T18:56:26.073Z,39.24
2023-05-17T18:59:12.155Z,39.36
2023-05-17T19:01:58.579Z,39.27
2023-05-17T19:04:44.945Z,39.39
2023-05-17T19:07:31.272Z,39.42
2023-05-17T19:10:18.557Z,39.53
2023-05-17T19:13:06.852Z,39.47
2023-05-17T19:15:53.258Z,39.54
2023-05-17T19:18:39.276Z,39.79
2023-05-17T19:21:25.339Z,39.95
2023-05-17T19:24:11.550Z,40.09
2023-05-17T19:26:57.784Z,40.02
2023-05-17T19:29:43.607Z,40.06
2023-05-17T19:32:33.177Z,40.13
2023-05-17T19:35:19.482Z,40.29
2023-05-17T19:38:05.585Z,40.60
2023-05-17T19:40:51.891Z,40.79
2023-05-17T19:43:38.576Z,40.77
2023-05-17T19:46:24.568Z,40.78
2023-05-17T19:49:12.837Z,40.74
2023-05-17T19:52:01.439Z,40.93
2023-05-17T19:54:48.298Z,41.23
2023-05-17T19:57:34.196Z,41.12
2023-05-17T20:00:21.030Z,41.29
2023-05-17T20:03:07.433Z,41.29
2023-05-17T20:05:55.313Z,41.35
2023-05-17T20:08:42.058Z,41.67
2023-05-17T20:11:28.138Z,41.80
2023-05-17T20:14:16.177Z,41.91
2023-05-17T20:17:02.281Z,41.90
2023-05-17T20:19:48.477Z,42.04
2023-05-17T20:22:36.226Z,42.08
2023-05-17T20:25:24.139Z,41.93
2023-05-17T20:28:10.288Z,42.14
2023-05-17T20:30:56.297Z,42.34
2023-05-17T20:33:44.219Z,42.31
2023-05-17T20:36:31.463Z,42.66
2023-05-17T20:39:18.098Z,42.49
2023-05-17T20:42:05.464Z,42.69
2023-05-17T20:44:53.861Z,42.89
2023-05-17T20:47:39.754Z,42.72
2023-05-17T20:50:25.763Z,42.85
2023-05-17T20:53:11.928Z,43.00
2023-05-17T20:55:58.562Z,43.03
2023-05-17T20:58:44.371Z,43.15
2023-05-17T21:01:31.331Z,43.15
2023-05-17T21:04:18.819Z,43.18
2023-05-17T21:07:05.919Z,43.26
2023-05-17T21:09:52.271Z,43.42
2023-05-17T21:12:38.405Z,43.58
2023-05-17T21:15:26.005Z,43.64
2023-05-17T21:18:12.446Z,43.79
2023-05-17T21:20:59.325Z,43.84
2023-05-17T21:23:46.701Z,43.75
2023-05-17T21:26:32.936Z,43.85
2023-05-17T21:29:19.095Z,44.13
2023-05-17T21:32:05.677Z,44.10
2023-05-17T21:34:53.791Z,44.34
2023-05-17T21:37:41.985Z,44.40
2023-05-17T21:40:27.938Z,44.37
2023-05-17T21:43:14.356Z,44.53
2023-05-17T21:46:00.415Z,44.29
2023-05-17T21:48:46.341Z,44.65
2023-05-17T21:51:32.490Z,44.78
2023-05-17T21:54:18.731Z,44.74
2023-05-17T21:57:04.848Z,44.80
2023-05-17T21:59:51.596Z,45.04
2023-05-17T22:02:37.639Z,45.06
2023-05-17T22:05:24.116Z,45.05
2023-05-17T22:08:10.401Z,45.08
2023-05-17T22:10:57.262Z,45.21
2023-05-17T22:13:43.199Z,45.23
2023-05-17T22:16:33.099Z,45.16
2023-05-17T22:19:21.409Z,45.38
2023-05-17T22:22:09.532Z,45.39
2023-05-17T22:24:55.981Z,45.44
2023-05-17T22:27:42.378Z,45.66
2023-05-17T22:30:28.967Z,45.58
2023-05-17T22:33:15.416Z,45.50
2023-05-17T22:36:04.931Z,45.82
2023-05-17T22:38:51.038Z,45.68
2023-05-17T22:41:37.213Z,45.71
2023-05-17T22:44:23.197Z,46.01
2023-05-17T22:47:09.399Z,46.02
2023-05-17T22:49:55.394Z,46.18
2023-05-17T22:52:42.821Z,46.23
2023-05-17T22:55:29.443Z,46.37
2023-05-17T22:58:16.139Z,45.81
2023-05-17T23:01:02.359Z,46.22
2023-05-17T23:03:48.449Z,46.54
2023-05-17T23:06:37.070Z,46.54
2023-05-17T23:09:23.341Z,46.99
2023-05-17T23:12:14.138Z,46.94
2023-05-17T23:15:00.699Z,47.27
2023-05-17T23:17:47.542Z,47.19
2023-05-17T23:20:35.140Z,47.31
2023-05-17T23:23:23.228Z,47.51
2023-05-17T23:26:43.251Z,47.83
2023-05-17T23:29:29.584Z,47.92
2023-05-17T23:32:16.723Z,47.87
2023-05-17T23:35:05.741Z,48.26
2023-05-17T23:37:54.715Z,48.51
2023-05-17T23:40:41.104Z,48.50
2023-05-17T23:43:26.987Z,48.66
2023-05-17T23:46:13.841Z,48.70
2023-05-17T23:48:59.905Z,48.78
2023-05-17T23:51:46.610Z,48.92
2023-05-17T23:54:32.468Z,48.98
2023-05-17T23:57:18.466Z,48.95
